sensor_id;sensor_type;location;lat;lon;timestamp;pressure;altitude;pressure_sealevel;temperature;humidity
22550;BME280;11441;57.164;-2.120;2022-11-15T00:00:56;99584.84;;;10.52;100.00
22550;BME280;11441;57.164;-2.120;2022-11-15T00:03:41;99580.81;;;10.43;100.00
22550;BME280;11441;57.164;-2.120;2022-11-15T00:06:27;99575.50;;;10.64;100.00
22550;BME280;11441;57.164;-2.120;2022-11-15T00:09:12;99584.19;;;10.73;100.00
22550;BME280;11441;57.164;-2.120;2022-11-15T00:11:57;99569.84;;;10.50;100.00
22550;BME280;11441;57.164;-2.120;2022-11-15T00:15:02;99572.38;;;10.69;100.00
22550;BME280;11441;57.164;-2.120;2022-11-15T00:17:50;99571.16;;;10.67;100.00
22550;BME280;11441;57.164;-2.120;2022-11-15T00:20:36;99571.19;;;10.70;100.00
22550;BME280;11441;57.164;-2.120;2022-11-15T00:23:21;99569.16;;;10.60;100.00
22550;BME280;11441;57.164;-2.120;2022-11-15T00:26:11;99561.38;;;10.73;100.00
22550;BME280;11441;57.164;-2.120;2022-11-15T00:28:56;99561.31;;;10.66;100.00
22550;BME280;11441;57.164;-2.120;2022-11-15T00:32:01;99555.97;;;10.87;100.00
22550;BME280;11441;57.164;-2.120;2022-11-15T00:34:46;99550.78;;;10.75;100.00
22550;BME280;11441;57.164;-2.120;2022-11-15T00:37:31;99538.56;;;10.76;100.00
22550;BME280;11441;57.164;-2.120;2022-11-15T00:40:17;99540.53;;;10.75;100.00
22550;BME280;11441;57.164;-2.120;2022-11-15T00:43:02;99533.88;;;10.77;100.00
22550;BME280;11441;57.164;-2.120;2022-11-15T00:45:47;99535.84;;;10.83;100.00
22550;BME280;11441;57.164;-2.120;2022-11-15T00:48:51;99525.16;;;10.71;100.00
22550;BME280;11441;57.164;-2.120;2022-11-15T00:51:37;99514.13;;;10.67;100.00
22550;BME280;11441;57.164;-2.120;2022-11-15T00:54:22;99518.09;;;10.70;100.00
22550;BME280;11441;57.164;-2.120;2022-11-15T00:57:07;99503.19;;;10.78;100.00
22550;BME280;11441;57.164;-2.120;2022-11-15T00:59:53;99509.47;;;10.75;100.00
22550;BME280;11441;57.164;-2.120;2022-11-15T01:02:38;99503.63;;;10.87;100.00
22550;BME280;11441;57.164;-2.120;2022-11-15T01:05:24;99498.56;;;11.00;100.00
22550;BME280;11441;57.164;-2.120;2022-11-15T01:08:13;99492.19;;;10.78;100.00
22550;BME280;11441;57.164;-2.120;2022-11-15T01:11:04;99487.53;;;10.97;100.00
22550;BME280;11441;57.164;-2.120;2022-11-15T01:13:49;99472.66;;;11.16;100.00
22550;BME280;11441;57.164;-2.120;2022-11-15T01:16:35;99468.63;;;10.99;100.00
22550;BME280;11441;57.164;-2.120;2022-11-15T01:19:20;99474.59;;;11.11;100.00
22550;BME280;11441;57.164;-2.120;2022-11-15T01:22:05;99475.78;;;11.10;100.00
22550;BME280;11441;57.164;-2.120;2022-11-15T01:24:51;99482.06;;;11.07;100.00
22550;BME280;11441;57.164;-2.120;2022-11-15T01:27:36;99487.13;;;10.98;100.00
22550;BME280;11441;57.164;-2.120;2022-11-15T01:30:22;99480.53;;;11.17;100.00
22550;BME280;11441;57.164;-2.120;2022-11-15T01:33:07;99475.78;;;11.10;100.00
22550;BME280;11441;57.164;-2.120;2022-11-15T01:35:53;99470.56;;;10.87;100.00
22550;BME280;11441;57.164;-2.120;2022-11-15T01:38:38;99475.75;;;11.03;100.00
22550;BME280;11441;57.164;-2.120;2022-11-15T01:41:42;99460.34;;;10.91;100.00
22550;BME280;11441;57.164;-2.120;2022-11-15T01:44:38;99473.03;;;11.10;100.00
22550;BME280;11441;57.164;-2.120;2022-11-15T01:47:28;99459.25;;;11.10;100.00
22550;BME280;11441;57.164;-2.120;2022-11-15T01:50:18;99462.38;;;11.09;100.00
22550;BME280;11441;57.164;-2.120;2022-11-15T01:53:06;99467.91;;;11.16;100.00
22550;BME280;11441;57.164;-2.120;2022-11-15T01:55:52;99456.84;;;11.02;100.00
22550;BME280;11441;57.164;-2.120;2022-11-15T01:58:38;99450.94;;;11.03;100.00
22550;BME280;11441;57.164;-2.120;2022-11-15T02:01:26;99447.41;;;10.99;100.00
22550;BME280;11441;57.164;-2.120;2022-11-15T02:04:19;99443.50;;;11.14;100.00
22550;BME280;11441;57.164;-2.120;2022-11-15T02:07:07;99447.41;;;10.96;100.00
22550;BME280;11441;57.164;-2.120;2022-11-15T02:10:16;99440.22;;;10.77;100.00
22550;BME280;11441;57.164;-2.120;2022-11-15T02:13:02;99444.19;;;10.90;100.00
22550;BME280;11441;57.164;-2.120;2022-11-15T02:22:32;99437.91;;;10.86;100.00
22550;BME280;11441;57.164;-2.120;2022-11-15T02:25:37;99444.56;;;10.81;100.00
22550;BME280;11441;57.164;-2.120;2022-11-15T02:34:25;99431.25;;;10.98;100.00
22550;BME280;11441;57.164;-2.120;2022-11-15T02:40:41;99418.28;;;10.98;100.00
22550;BME280;11441;57.164;-2.120;2022-11-15T02:46:48;99394.69;;;11.01;100.00
22550;BME280;11441;57.164;-2.120;2022-11-15T02:49:57;99390.72;;;11.05;100.00
22550;BME280;11441;57.164;-2.120;2022-11-15T02:52:48;99379.66;;;10.84;100.00
22550;BME280;11441;57.164;-2.120;2022-11-15T02:55:45;99377.69;;;10.88;100.00
22550;BME280;11441;57.164;-2.120;2022-11-15T03:04:58;99352.94;;;10.99;100.00
22550;BME280;11441;57.164;-2.120;2022-11-15T03:11:11;99354.50;;;10.92;100.00
22550;BME280;11441;57.164;-2.120;2022-11-15T03:13:59;99342.28;;;10.93;100.00
22550;BME280;11441;57.164;-2.120;2022-11-15T03:16:58;99347.78;;;10.90;100.00
22550;BME280;11441;57.164;-2.120;2022-11-15T03:19:50;99342.28;;;10.93;100.00
22550;BME280;11441;57.164;-2.120;2022-11-15T03:22:40;99339.13;;;10.88;100.00
22550;BME280;11441;57.164;-2.120;2022-11-15T03:25:28;99338.78;;;11.00;100.00
22550;BME280;11441;57.164;-2.120;2022-11-15T03:28:22;99331.28;;;10.93;100.00
22550;BME280;11441;57.164;-2.120;2022-11-15T03:31:12;99330.47;;;10.86;100.00
22550;BME280;11441;57.164;-2.120;2022-11-15T03:34:31;99324.94;;;10.71;100.00
22550;BME280;11441;57.164;-2.120;2022-11-15T03:37:21;99317.47;;;10.72;100.00
22550;BME280;11441;57.164;-2.120;2022-11-15T03:40:07;99315.09;;;10.67;100.00
22550;BME280;11441;57.164;-2.120;2022-11-15T03:43:07;99309.59;;;10.78;100.00
22550;BME280;11441;57.164;-2.120;2022-11-15T03:46:07;99311.56;;;10.73;100.00
22550;BME280;11441;57.164;-2.120;2022-11-15T03:49:12;99297.41;;;10.79;100.00
22550;BME280;11441;57.164;-2.120;2022-11-15T03:52:02;99288.34;;;10.71;100.00
22550;BME280;11441;57.164;-2.120;2022-11-15T03:54:56;99298.19;;;10.79;100.00
22550;BME280;11441;57.164;-2.120;2022-11-15T03:57:41;99293.47;;;10.76;100.00
22550;BME280;11441;57.164;-2.120;2022-11-15T04:00:27;99284.41;;;10.68;100.00
22550;BME280;11441;57.164;-2.120;2022-11-15T04:03:13;99284.06;;;10.84;100.00
22550;BME280;11441;57.164;-2.120;2022-11-15T04:05:58;99278.13;;;10.71;100.00
22550;BME280;11441;57.164;-2.120;2022-11-15T04:08:44;99281.66;;;10.72;100.00
22550;BME280;11441;57.164;-2.120;2022-11-15T04:11:32;99267.88;;;10.54;100.00
22550;BME280;11441;57.164;-2.120;2022-11-15T04:14:17;99269.00;;;10.42;100.00
22550;BME280;11441;57.164;-2.120;2022-11-15T04:17:02;99252.13;;;10.54;100.00
22550;BME280;11441;57.164;-2.120;2022-11-15T04:19:48;99253.72;;;10.63;100.00
22550;BME280;11441;57.164;-2.120;2022-11-15T04:22:53;99248.59;;;10.47;100.00
22550;BME280;11441;57.164;-2.120;2022-11-15T04:26:19;99250.97;;;10.63;100.00
22550;BME280;11441;57.164;-2.120;2022-11-15T04:29:05;99252.50;;;10.49;100.00
22550;BME280;11441;57.164;-2.120;2022-11-15T04:32:09;99245.00;;;10.43;100.00
22550;BME280;11441;57.164;-2.120;2022-11-15T04:34:55;99243.88;;;10.58;100.00
22550;BME280;11441;57.164;-2.120;2022-11-15T04:37:40;99230.50;;;10.56;100.00
22550;BME280;11441;57.164;-2.120;2022-11-15T04:40:33;99234.78;;;10.43;100.00
22550;BME280;11441;57.164;-2.120;2022-11-15T04:43:18;99235.59;;;10.40;100.00
22550;BME280;11441;57.164;-2.120;2022-11-15T04:46:04;99224.97;;;10.42;100.00
22550;BME280;11441;57.164;-2.120;2022-11-15T04:48:49;99226.47;;;10.29;100.00
22550;BME280;11441;57.164;-2.120;2022-11-15T04:51:42;99212.38;;;10.41;100.00
22550;BME280;11441;57.164;-2.120;2022-11-15T04:54:27;99218.25;;;10.32;100.00
22550;BME280;11441;57.164;-2.120;2022-11-15T04:57:13;99203.31;;;10.33;100.00
22550;BME280;11441;57.164;-2.120;2022-11-15T04:59:58;99204.13;;;10.45;100.00
22550;BME280;11441;57.164;-2.120;2022-11-15T05:02:44;99201.31;;;10.23;100.00
22550;BME280;11441;57.164;-2.120;2022-11-15T05:05:48;99199.41;;;10.42;100.00
22550;BME280;11441;57.164;-2.120;2022-11-15T05:08:52;99208.88;;;10.55;100.00
22550;BME280;11441;57.164;-2.120;2022-11-15T05:11:37;99202.97;;;10.49;100.00
22550;BME280;11441;57.164;-2.120;2022-11-15T05:14:23;99200.59;;;10.44;100.00
22550;BME280;11441;57.164;-2.120;2022-11-15T05:17:08;99195.88;;;10.45;100.00
22550;BME280;11441;57.164;-2.120;2022-11-15T05:19:54;99189.59;;;10.55;100.00
22550;BME280;11441;57.164;-2.120;2022-11-15T05:22:39;99191.56;;;10.51;100.00
22550;BME280;11441;57.164;-2.120;2022-11-15T05:25:25;99185.69;;;10.60;100.00
22550;BME280;11441;57.164;-2.120;2022-11-15T05:28:11;99186.47;;;10.67;100.00
22550;BME280;11441;57.164;-2.120;2022-11-15T05:31:15;99186.84;;;10.66;100.00
22550;BME280;11441;57.164;-2.120;2022-11-15T05:34:00;99179.00;;;10.71;100.00
22550;BME280;11441;57.164;-2.120;2022-11-15T05:36:47;99180.16;;;10.60;100.00
22550;BME280;11441;57.164;-2.120;2022-11-15T05:39:32;99179.78;;;10.61;100.00
22550;BME280;11441;57.164;-2.120;2022-11-15T05:42:18;99180.56;;;10.76;100.00
22550;BME280;11441;57.164;-2.120;2022-11-15T05:45:06;99176.66;;;10.70;100.00
22550;BME280;11441;57.164;-2.120;2022-11-15T05:47:52;99172.69;;;10.60;100.00
22550;BME280;11441;57.164;-2.120;2022-11-15T05:50:41;99154.22;;;10.71;100.00
22550;BME280;11441;57.164;-2.120;2022-11-15T05:53:29;99151.09;;;10.73;100.00
22550;BME280;11441;57.164;-2.120;2022-11-15T05:56:15;99144.38;;;10.67;100.00
22550;BME280;11441;57.164;-2.120;2022-11-15T05:59:02;99145.97;;;10.68;100.00
22550;BME280;11441;57.164;-2.120;2022-11-15T06:01:48;99144.78;;;10.65;100.00
22550;BME280;11441;57.164;-2.120;2022-11-15T06:04:33;99135.34;;;10.55;100.00
22550;BME280;11441;57.164;-2.120;2022-11-15T06:07:19;99144.00;;;10.75;100.00
22550;BME280;11441;57.164;-2.120;2022-11-15T06:10:05;99134.94;;;10.79;100.00
22550;BME280;11441;57.164;-2.120;2022-11-15T06:13:00;99126.31;;;10.73;100.00
22550;BME280;11441;57.164;-2.120;2022-11-15T06:15:45;99111.34;;;10.70;100.00
22550;BME280;11441;57.164;-2.120;2022-11-15T06:18:33;99125.09;;;10.88;100.00
22550;BME280;11441;57.164;-2.120;2022-11-15T06:21:19;99123.13;;;10.92;100.00
22550;BME280;11441;57.164;-2.120;2022-11-15T06:24:05;99106.59;;;10.74;100.00
22550;BME280;11441;57.164;-2.120;2022-11-15T06:26:50;99116.03;;;10.88;100.00
22550;BME280;11441;57.164;-2.120;2022-11-15T06:29:35;99117.66;;;10.78;100.00
22550;BME280;11441;57.164;-2.120;2022-11-15T06:32:21;99114.47;;;10.83;100.00
22550;BME280;11441;57.164;-2.120;2022-11-15T06:35:06;99114.47;;;10.80;100.00
22550;BME280;11441;57.164;-2.120;2022-11-15T06:37:52;99109.34;;;10.96;100.00
22550;BME280;11441;57.164;-2.120;2022-11-15T06:40:38;99097.13;;;10.93;100.00
22550;BME280;11441;57.164;-2.120;2022-11-15T06:43:24;99104.25;;;10.91;100.00
22550;BME280;11441;57.164;-2.120;2022-11-15T06:46:09;99093.59;;;10.93;100.00
22550;BME280;11441;57.164;-2.120;2022-11-15T06:48:55;99095.19;;;10.98;100.00
22550;BME280;11441;57.164;-2.120;2022-11-15T06:51:40;99084.56;;;10.96;100.00
22550;BME280;11441;57.164;-2.120;2022-11-15T06:54:25;99084.56;;;11.00;100.00
22550;BME280;11441;57.164;-2.120;2022-11-15T06:57:11;99079.47;;;10.91;100.00
22550;BME280;11441;57.164;-2.120;2022-11-15T06:59:56;99090.47;;;10.94;100.00
22550;BME280;11441;57.164;-2.120;2022-11-15T07:02:42;99084.19;;;10.90;100.00
22550;BME280;11441;57.164;-2.120;2022-11-15T07:05:27;99076.69;;;10.91;100.00
22550;BME280;11441;57.164;-2.120;2022-11-15T07:08:13;99088.09;;;10.93;100.00
22550;BME280;11441;57.164;-2.120;2022-11-15T07:11:00;99088.47;;;11.02;100.00
22550;BME280;11441;57.164;-2.120;2022-11-15T07:13:46;99088.47;;;10.99;100.00
22550;BME280;11441;57.164;-2.120;2022-11-15T07:16:31;99095.56;;;11.03;100.00
22550;BME280;11441;57.164;-2.120;2022-11-15T07:19:17;99087.69;;;10.98;100.00
22550;BME280;11441;57.164;-2.120;2022-11-15T07:22:02;99091.63;;;10.93;100.00
22550;BME280;11441;57.164;-2.120;2022-11-15T07:24:47;99092.03;;;10.99;100.00
22550;BME280;11441;57.164;-2.120;2022-11-15T07:27:33;99086.13;;;10.90;100.00
22550;BME280;11441;57.164;-2.120;2022-11-15T07:30:18;99102.25;;;10.95;100.00
22550;BME280;11441;57.164;-2.120;2022-11-15T07:33:03;99097.56;;;10.92;100.00
22550;BME280;11441;57.164;-2.120;2022-11-15T07:35:49;99086.94;;;10.90;100.00
22550;BME280;11441;57.164;-2.120;2022-11-15T07:38:35;99090.81;;;11.04;100.00
22550;BME280;11441;57.164;-2.120;2022-11-15T07:41:27;99091.22;;;10.99;100.00
22550;BME280;11441;57.164;-2.120;2022-11-15T07:44:12;99091.25;;;10.91;100.00
22550;BME280;11441;57.164;-2.120;2022-11-15T07:46:57;99087.31;;;10.92;100.00
22550;BME280;11441;57.164;-2.120;2022-11-15T07:49:43;99083.00;;;10.91;100.00
22550;BME280;11441;57.164;-2.120;2022-11-15T07:52:28;99081.41;;;10.98;100.00
22550;BME280;11441;57.164;-2.120;2022-11-15T07:55:14;99088.91;;;11.01;100.00
22550;BME280;11441;57.164;-2.120;2022-11-15T07:58:10;99091.66;;;10.90;100.00
22550;BME280;11441;57.164;-2.120;2022-11-15T08:00:55;99099.50;;;10.91;100.00
22550;BME280;11441;57.164;-2.120;2022-11-15T08:03:41;99084.19;;;10.94;100.00
22550;BME280;11441;57.164;-2.120;2022-11-15T08:06:27;99085.75;;;10.91;100.00
22550;BME280;11441;57.164;-2.120;2022-11-15T08:09:30;99086.53;;;11.03;100.00
22550;BME280;11441;57.164;-2.120;2022-11-15T08:12:15;99082.16;;;11.09;100.00
22550;BME280;11441;57.164;-2.120;2022-11-15T08:15:01;99086.84;;;11.19;100.00
22550;BME280;11441;57.164;-2.120;2022-11-15T08:17:46;99068.44;;;10.94;100.00
22550;BME280;11441;57.164;-2.120;2022-11-15T08:20:32;99069.22;;;10.95;100.00
22550;BME280;11441;57.164;-2.120;2022-11-15T08:23:19;99074.69;;;11.02;100.00
22550;BME280;11441;57.164;-2.120;2022-11-15T08:26:05;99053.47;;;10.96;100.00
22550;BME280;11441;57.164;-2.120;2022-11-15T08:29:08;99055.41;;;11.09;100.00
22550;BME280;11441;57.164;-2.120;2022-11-15T08:31:55;99069.59;;;10.97;100.00
22550;BME280;11441;57.164;-2.120;2022-11-15T08:34:41;99059.72;;;11.10;100.00
22550;BME280;11441;57.164;-2.120;2022-11-15T08:37:27;99060.88;;;11.24;100.00
22550;BME280;11441;57.164;-2.120;2022-11-15T08:40:12;99049.47;;;11.11;100.00
22550;BME280;11441;57.164;-2.120;2022-11-15T08:42:58;99047.16;;;11.02;100.00
22550;BME280;11441;57.164;-2.120;2022-11-15T08:45:47;99049.94;;;10.95;100.00
22550;BME280;11441;57.164;-2.120;2022-11-15T08:48:32;99027.53;;;10.86;100.00
22550;BME280;11441;57.164;-2.120;2022-11-15T08:51:18;99021.97;;;11.00;100.00
22550;BME280;11441;57.164;-2.120;2022-11-15T08:54:04;99036.56;;;10.90;100.00
22550;BME280;11441;57.164;-2.120;2022-11-15T08:56:49;99017.28;;;10.90;100.00
22550;BME280;11441;57.164;-2.120;2022-11-15T08:59:35;99011.03;;;10.79;100.00
22550;BME280;11441;57.164;-2.120;2022-11-15T09:02:21;99005.16;;;10.69;100.00
22550;BME280;11441;57.164;-2.120;2022-11-15T09:05:07;98989.44;;;10.66;100.00
22550;BME280;11441;57.164;-2.120;2022-11-15T09:07:53;98994.13;;;10.77;100.00
22550;BME280;11441;57.164;-2.120;2022-11-15T09:11:17;98983.91;;;10.70;100.00
22550;BME280;11441;57.164;-2.120;2022-11-15T09:14:05;98984.69;;;10.70;100.00
22550;BME280;11441;57.164;-2.120;2022-11-15T09:16:50;98979.59;;;10.65;100.00
22550;BME280;11441;57.164;-2.120;2022-11-15T09:19:36;98978.03;;;10.64;100.00
22550;BME280;11441;57.164;-2.120;2022-11-15T09:22:22;98958.34;;;10.73;100.00
22550;BME280;11441;57.164;-2.120;2022-11-15T09:25:26;98976.38;;;10.81;100.00
22550;BME280;11441;57.164;-2.120;2022-11-15T09:28:11;98967.00;;;10.57;100.00
22550;BME280;11441;57.164;-2.120;2022-11-15T09:30:58;98960.66;;;10.74;100.00
22550;BME280;11441;57.164;-2.120;2022-11-15T09:33:44;98955.59;;;10.69;100.00
22550;BME280;11441;57.164;-2.120;2022-11-15T09:36:49;98955.97;;;10.75;100.00
22550;BME280;11441;57.164;-2.120;2022-11-15T09:39:34;98958.66;;;10.93;100.00
22550;BME280;11441;57.164;-2.120;2022-11-15T09:42:47;98960.22;;;10.94;100.00
22550;BME280;11441;57.164;-2.120;2022-11-15T09:51:30;98947.59;;;11.00;100.00
22550;BME280;11441;57.164;-2.120;2022-11-15T10:00:02;98952.69;;;11.05;100.00
22550;BME280;11441;57.164;-2.120;2022-11-15T10:03:16;98946.44;;;10.98;100.00
22550;BME280;11441;57.164;-2.120;2022-11-15T10:05:49;98946.84;;;10.92;100.00
22550;BME280;11441;57.164;-2.120;2022-11-15T10:10:47;98927.94;;;10.98;100.00
22550;BME280;11441;57.164;-2.120;2022-11-15T10:13:32;98918.53;;;10.92;100.00
22550;BME280;11441;57.164;-2.120;2022-11-15T10:16:20;98925.59;;;10.93;100.00
22550;BME280;11441;57.164;-2.120;2022-11-15T10:24:28;98914.56;;;10.93;100.00
22550;BME280;11441;57.164;-2.120;2022-11-15T10:27:17;98907.09;;;11.01;100.00
22550;BME280;11441;57.164;-2.120;2022-11-15T10:29:47;98899.56;;;11.05;100.00
22550;BME280;11441;57.164;-2.120;2022-11-15T10:32:19;98896.81;;;11.05;100.00
22550;BME280;11441;57.164;-2.120;2022-11-15T10:34:48;98894.44;;;11.07;100.00
22550;BME280;11441;57.164;-2.120;2022-11-15T10:37:34;98887.78;;;10.97;100.00
22550;BME280;11441;57.164;-2.120;2022-11-15T10:40:05;98888.66;;;10.87;100.00
22550;BME280;11441;57.164;-2.120;2022-11-15T10:42:33;98879.16;;;10.95;100.00
22550;BME280;11441;57.164;-2.120;2022-11-15T10:44:59;98867.31;;;11.02;100.00
22550;BME280;11441;57.164;-2.120;2022-11-15T10:47:27;98854.69;;;11.11;100.00
22550;BME280;11441;57.164;-2.120;2022-11-15T10:50:05;98840.53;;;11.09;100.00
22550;BME280;11441;57.164;-2.120;2022-11-15T10:52:35;98842.81;;;11.22;100.00
22550;BME280;11441;57.164;-2.120;2022-11-15T10:55:22;98832.59;;;11.19;100.00
22550;BME280;11441;57.164;-2.120;2022-11-15T10:58:00;98830.69;;;11.08;100.00
22550;BME280;11441;57.164;-2.120;2022-11-15T11:00:37;98818.94;;;11.01;100.00
22550;BME280;11441;57.164;-2.120;2022-11-15T11:09:38;98806.00;;;10.94;100.00
22550;BME280;11441;57.164;-2.120;2022-11-15T11:12:11;98798.56;;;10.84;100.00
22550;BME280;11441;57.164;-2.120;2022-11-15T11:14:39;98801.66;;;10.93;100.00
22550;BME280;11441;57.164;-2.120;2022-11-15T11:17:10;98789.47;;;10.94;100.00
22550;BME280;11441;57.164;-2.120;2022-11-15T11:33:26;98764.31;;;10.92;100.00
22550;BME280;11441;57.164;-2.120;2022-11-15T11:41:42;98746.16;;;10.98;100.00
22550;BME280;11441;57.164;-2.120;2022-11-15T11:47:12;98728.81;;;11.01;100.00
22550;BME280;11441;57.164;-2.120;2022-11-15T11:50:01;98736.75;;;10.92;100.00
22550;BME280;11441;57.164;-2.120;2022-11-15T11:52:43;98735.47;;;11.04;100.00
22550;BME280;11441;57.164;-2.120;2022-11-15T11:55:23;98729.31;;;10.89;100.00
22550;BME280;11441;57.164;-2.120;2022-11-15T12:00:26;98730.53;;;10.81;100.00
22550;BME280;11441;57.164;-2.120;2022-11-15T12:03:02;98730.16;;;10.79;100.00
22550;BME280;11441;57.164;-2.120;2022-11-15T12:05:42;98734.31;;;11.01;100.00
22550;BME280;11441;57.164;-2.120;2022-11-15T12:14:01;98714.34;;;11.35;100.00
22550;BME280;11441;57.164;-2.120;2022-11-15T12:16:31;98710.72;;;11.42;100.00
22550;BME280;11441;57.164;-2.120;2022-11-15T12:19:02;98707.25;;;11.38;100.00
22550;BME280;11441;57.164;-2.120;2022-11-15T12:24:41;98681.16;;;11.49;100.00
22550;BME280;11441;57.164;-2.120;2022-11-15T12:29:56;98684.59;;;11.57;100.00
22550;BME280;11441;57.164;-2.120;2022-11-15T12:37:54;98665.78;;;11.48;100.00
22550;BME280;11441;57.164;-2.120;2022-11-15T12:43:41;98655.25;;;11.40;100.00
22550;BME280;11441;57.164;-2.120;2022-11-15T12:59:57;98616.75;;;11.32;100.00
22550;BME280;11441;57.164;-2.120;2022-11-15T13:13:08;98605.03;;;11.21;100.00
22550;BME280;11441;57.164;-2.120;2022-11-15T13:20:54;98596.88;;;11.10;100.00
22550;BME280;11441;57.164;-2.120;2022-11-15T13:23:50;98583.84;;;11.14;100.00
22550;BME280;11441;57.164;-2.120;2022-11-15T13:26:17;98601.22;;;11.11;100.00
22550;BME280;11441;57.164;-2.120;2022-11-15T13:28:46;98576.84;;;11.10;100.00
22550;BME280;11441;57.164;-2.120;2022-11-15T13:34:29;98566.06;;;11.23;100.00
22550;BME280;11441;57.164;-2.120;2022-11-15T13:39:48;98565.81;;;11.44;100.00
22550;BME280;11441;57.164;-2.120;2022-11-15T13:42:18;98558.31;;;11.45;100.00
22550;BME280;11441;57.164;-2.120;2022-11-15T13:45:04;98542.75;;;11.31;100.00
22550;BME280;11441;57.164;-2.120;2022-11-15T13:47:31;98538.47;;;11.26;100.00
22550;BME280;11441;57.164;-2.120;2022-11-15T13:50:15;98536.53;;;11.23;100.00
22550;BME280;11441;57.164;-2.120;2022-11-15T13:52:43;98537.59;;;11.33;100.00
22550;BME280;11441;57.164;-2.120;2022-11-15T13:55:15;98527.13;;;11.21;100.00
22550;BME280;11441;57.164;-2.120;2022-11-15T13:57:59;98524.03;;;11.49;100.00
22550;BME280;11441;57.164;-2.120;2022-11-15T14:00:37;98524.03;;;11.49;100.00
22550;BME280;11441;57.164;-2.120;2022-11-15T14:03:26;98511.25;;;11.32;100.00
22550;BME280;11441;57.164;-2.120;2022-11-15T14:06:12;98499.56;;;11.21;100.00
22550;BME280;11441;57.164;-2.120;2022-11-15T14:11:25;98487.06;;;11.12;100.00
22550;BME280;11441;57.164;-2.120;2022-11-15T14:14:10;98481.97;;;11.11;100.00
22550;BME280;11441;57.164;-2.120;2022-11-15T14:16:46;98477.63;;;11.13;100.00
22550;BME280;11441;57.164;-2.120;2022-11-15T14:22:12;98448.84;;;11.14;100.00
22550;BME280;11441;57.164;-2.120;2022-11-15T14:24:42;98440.41;;;10.98;100.00
22550;BME280;11441;57.164;-2.120;2022-11-15T14:30:16;98426.50;;;11.09;100.00
22550;BME280;11441;57.164;-2.120;2022-11-15T14:33:01;98420.19;;;11.12;100.00
22550;BME280;11441;57.164;-2.120;2022-11-15T14:35:29;98410.88;;;10.99;100.00
22550;BME280;11441;57.164;-2.120;2022-11-15T14:37:56;98405.72;;;11.04;100.00
22550;BME280;11441;57.164;-2.120;2022-11-15T14:40:22;98395.63;;;10.94;100.00
22550;BME280;11441;57.164;-2.120;2022-11-15T14:42:49;98394.81;;;10.93;100.00
22550;BME280;11441;57.164;-2.120;2022-11-15T14:45:19;98407.31;;;11.02;100.00
22550;BME280;11441;57.164;-2.120;2022-11-15T14:48:04;98411.41;;;10.90;100.00
22550;BME280;11441;57.164;-2.120;2022-11-15T14:50:32;98399.16;;;10.94;100.00
22550;BME280;11441;57.164;-2.120;2022-11-15T14:53:00;98399.88;;;10.99;100.00
22550;BME280;11441;57.164;-2.120;2022-11-15T14:56:23;98398.50;;;10.83;100.00
22550;BME280;11441;57.164;-2.120;2022-11-15T14:58:49;98387.91;;;10.82;100.00
22550;BME280;11441;57.164;-2.120;2022-11-15T15:01:23;98372.31;;;10.71;100.00
22550;BME280;11441;57.164;-2.120;2022-11-15T15:03:50;98355.25;;;10.84;100.00
22550;BME280;11441;57.164;-2.120;2022-11-15T15:06:26;98347.69;;;10.88;100.00
22550;BME280;11441;57.164;-2.120;2022-11-15T15:08:53;98349.44;;;10.74;100.00
22550;BME280;11441;57.164;-2.120;2022-11-15T15:11:25;98351.31;;;10.81;100.00
22550;BME280;11441;57.164;-2.120;2022-11-15T15:13:53;98347.13;;;10.73;100.00
22550;BME280;11441;57.164;-2.120;2022-11-15T15:16:23;98327.81;;;10.77;100.00
22550;BME280;11441;57.164;-2.120;2022-11-15T15:18:50;98345.75;;;10.85;100.00
22550;BME280;11441;57.164;-2.120;2022-11-15T15:21:25;98323.38;;;10.83;100.00
22550;BME280;11441;57.164;-2.120;2022-11-15T15:23:57;98309.25;;;10.81;100.00
22550;BME280;11441;57.164;-2.120;2022-11-15T15:26:24;98321.63;;;10.65;100.00
22550;BME280;11441;57.164;-2.120;2022-11-15T15:28:51;98316.91;;;10.66;100.00
22550;BME280;11441;57.164;-2.120;2022-11-15T15:31:18;98307.63;;;10.83;100.00
22550;BME280;11441;57.164;-2.120;2022-11-15T15:33:45;98299.97;;;10.67;100.00
22550;BME280;11441;57.164;-2.120;2022-11-15T15:36:13;98305.81;;;10.73;100.00
22550;BME280;11441;57.164;-2.120;2022-11-15T15:38:40;98299.41;;;10.80;100.00
22550;BME280;11441;57.164;-2.120;2022-11-15T15:41:11;98284.22;;;10.71;100.00
22550;BME280;11441;57.164;-2.120;2022-11-15T15:43:38;98287.31;;;10.73;100.00
22550;BME280;11441;57.164;-2.120;2022-11-15T15:46:12;98279.06;;;10.73;100.00
22550;BME280;11441;57.164;-2.120;2022-11-15T15:48:58;98272.34;;;10.74;100.00
22550;BME280;11441;57.164;-2.120;2022-11-15T15:51:25;98265.91;;;10.85;100.00
22550;BME280;11441;57.164;-2.120;2022-11-15T15:53:52;98256.13;;;10.84;100.00
22550;BME280;11441;57.164;-2.120;2022-11-15T15:56:23;98262.75;;;10.86;100.00
22550;BME280;11441;57.164;-2.120;2022-11-15T15:58:50;98255.75;;;10.82;100.00
22550;BME280;11441;57.164;-2.120;2022-11-15T16:01:19;98249.09;;;10.79;100.00
22550;BME280;11441;57.164;-2.120;2022-11-15T16:03:46;98252.53;;;10.87;100.00
22550;BME280;11441;57.164;-2.120;2022-11-15T16:06:33;98246.84;;;10.70;100.00
22550;BME280;11441;57.164;-2.120;2022-11-15T16:09:01;98238.25;;;10.68;100.00
22550;BME280;11441;57.164;-2.120;2022-11-15T16:11:45;98232.56;;;10.79;100.00
22550;BME280;11441;57.164;-2.120;2022-11-15T16:14:12;98240.47;;;10.77;100.00
22550;BME280;11441;57.164;-2.120;2022-11-15T16:16:39;98216.56;;;10.70;100.00
22550;BME280;11441;57.164;-2.120;2022-11-15T16:19:08;98228.69;;;10.77;100.00
22550;BME280;11441;57.164;-2.120;2022-11-15T16:21:35;98225.34;;;10.89;100.00
22550;BME280;11441;57.164;-2.120;2022-11-15T16:24:02;98212.06;;;10.84;100.00
22550;BME280;11441;57.164;-2.120;2022-11-15T16:26:30;98211.19;;;10.90;100.00
22550;BME280;11441;57.164;-2.120;2022-11-15T16:28:57;98219.97;;;10.82;100.00